sensor_id;sensor_type;location;lat;lon;timestamp;P1;durP1;ratioP1;P2;durP2;ratioP2
39218;SDS011;24934;52.752;6.964;2023-04-16T00:00:59;109.13;;;56.37;;
39218;SDS011;24934;52.752;6.964;2023-04-16T00:03:25;106.57;;;56.37;;
39218;SDS011;24934;52.752;6.964;2023-04-16T00:05:51;106.10;;;55.47;;
39218;SDS011;24934;52.752;6.964;2023-04-16T00:08:19;105.67;;;55.43;;
39218;SDS011;24934;52.752;6.964;2023-04-16T00:10:51;105.80;;;56.07;;
39218;SDS011;24934;52.752;6.964;2023-04-16T00:13:17;102.63;;;54.83;;
39218;SDS011;24934;52.752;6.964;2023-04-16T00:15:49;101.43;;;53.33;;
39218;SDS011;24934;52.752;6.964;2023-04-16T00:18:14;108.67;;;56.13;;
39218;SDS011;24934;52.752;6.964;2023-04-16T00:20:40;107.27;;;55.50;;
39218;SDS011;24934;52.752;6.964;2023-04-16T00:23:08;101.77;;;53.80;;
39218;SDS011;24934;52.752;6.964;2023-04-16T00:25:34;105.80;;;55.43;;
39218;SDS011;24934;52.752;6.964;2023-04-16T00:28:00;99.13;;;55.30;;
39218;SDS011;24934;52.752;6.964;2023-04-16T00:30:28;100.33;;;54.87;;
39218;SDS011;24934;52.752;6.964;2023-04-16T00:32:54;104.90;;;54.20;;
39218;SDS011;24934;52.752;6.964;2023-04-16T00:35:20;101.00;;;54.13;;
39218;SDS011;24934;52.752;6.964;2023-04-16T00:37:46;100.20;;;53.73;;
39218;SDS011;24934;52.752;6.964;2023-04-16T00:40:13;103.90;;;53.50;;
39218;SDS011;24934;52.752;6.964;2023-04-16T00:42:39;102.10;;;54.27;;
39218;SDS011;24934;52.752;6.964;2023-04-16T00:45:07;109.73;;;54.23;;
39218;SDS011;24934;52.752;6.964;2023-04-16T00:47:34;97.13;;;53.90;;
39218;SDS011;24934;52.752;6.964;2023-04-16T00:50:00;92.13;;;54.00;;
39218;SDS011;24934;52.752;6.964;2023-04-16T00:52:28;100.87;;;54.33;;
39218;SDS011;24934;52.752;6.964;2023-04-16T00:54:55;104.17;;;53.10;;
39218;SDS011;24934;52.752;6.964;2023-04-16T00:57:24;99.30;;;52.03;;
39218;SDS011;24934;52.752;6.964;2023-04-16T00:59:51;102.57;;;53.00;;
39218;SDS011;24934;52.752;6.964;2023-04-16T01:02:16;102.23;;;54.77;;
39218;SDS011;24934;52.752;6.964;2023-04-16T01:04:42;104.63;;;53.20;;
39218;SDS011;24934;52.752;6.964;2023-04-16T01:07:08;97.53;;;54.17;;
39218;SDS011;24934;52.752;6.964;2023-04-16T01:09:34;105.13;;;54.03;;
39218;SDS011;24934;52.752;6.964;2023-04-16T01:11:59;105.77;;;54.37;;
39218;SDS011;24934;52.752;6.964;2023-04-16T01:14:26;103.67;;;54.83;;
39218;SDS011;24934;52.752;6.964;2023-04-16T01:16:51;104.57;;;56.43;;
39218;SDS011;24934;52.752;6.964;2023-04-16T01:19:17;103.00;;;52.73;;
39218;SDS011;24934;52.752;6.964;2023-04-16T01:21:43;105.27;;;54.40;;
39218;SDS011;24934;52.752;6.964;2023-04-16T01:24:08;101.33;;;53.93;;
39218;SDS011;24934;52.752;6.964;2023-04-16T01:26:34;101.60;;;53.10;;
39218;SDS011;24934;52.752;6.964;2023-04-16T01:28:59;102.70;;;54.70;;
39218;SDS011;24934;52.752;6.964;2023-04-16T01:31:28;105.93;;;53.53;;
39218;SDS011;24934;52.752;6.964;2023-04-16T01:33:53;108.63;;;54.17;;
39218;SDS011;24934;52.752;6.964;2023-04-16T01:36:19;102.60;;;53.57;;
39218;SDS011;24934;52.752;6.964;2023-04-16T01:38:45;104.40;;;55.03;;
39218;SDS011;24934;52.752;6.964;2023-04-16T01:41:11;96.73;;;53.83;;
39218;SDS011;24934;52.752;6.964;2023-04-16T01:43:36;103.03;;;53.20;;
39218;SDS011;24934;52.752;6.964;2023-04-16T01:46:11;90.73;;;52.87;;
39218;SDS011;24934;52.752;6.964;2023-04-16T01:48:55;95.03;;;53.13;;
39218;SDS011;24934;52.752;6.964;2023-04-16T01:51:21;108.27;;;53.50;;
39218;SDS011;24934;52.752;6.964;2023-04-16T01:53:48;96.40;;;53.20;;
39218;SDS011;24934;52.752;6.964;2023-04-16T01:56:14;97.37;;;52.13;;
39218;SDS011;24934;52.752;6.964;2023-04-16T01:58:43;105.67;;;53.63;;
39218;SDS011;24934;52.752;6.964;2023-04-16T02:01:10;95.90;;;53.40;;
39218;SDS011;24934;52.752;6.964;2023-04-16T02:03:35;111.80;;;54.60;;
39218;SDS011;24934;52.752;6.964;2023-04-16T02:06:01;105.60;;;53.80;;
39218;SDS011;24934;52.752;6.964;2023-04-16T02:08:27;95.43;;;53.20;;
39218;SDS011;24934;52.752;6.964;2023-04-16T02:10:54;108.93;;;53.03;;
39218;SDS011;24934;52.752;6.964;2023-04-16T02:13:20;105.90;;;53.53;;
39218;SDS011;24934;52.752;6.964;2023-04-16T02:15:48;104.87;;;52.40;;
39218;SDS011;24934;52.752;6.964;2023-04-16T02:18:14;104.70;;;53.47;;
39218;SDS011;24934;52.752;6.964;2023-04-16T02:20:41;104.47;;;52.97;;
39218;SDS011;24934;52.752;6.964;2023-04-16T02:23:08;102.87;;;54.93;;
39218;SDS011;24934;52.752;6.964;2023-04-16T02:25:38;106.37;;;52.33;;
39218;SDS011;24934;52.752;6.964;2023-04-16T02:28:11;103.40;;;54.20;;
39218;SDS011;24934;52.752;6.964;2023-04-16T02:30:40;102.30;;;52.43;;
39218;SDS011;24934;52.752;6.964;2023-04-16T02:33:06;105.43;;;52.90;;
39218;SDS011;24934;52.752;6.964;2023-04-16T02:35:37;105.93;;;55.37;;
39218;SDS011;24934;52.752;6.964;2023-04-16T02:38:06;98.90;;;54.70;;
39218;SDS011;24934;52.752;6.964;2023-04-16T02:40:32;101.87;;;55.00;;
39218;SDS011;24934;52.752;6.964;2023-04-16T02:42:58;107.80;;;55.73;;
39218;SDS011;24934;52.752;6.964;2023-04-16T02:45:24;101.53;;;54.30;;
39218;SDS011;24934;52.752;6.964;2023-04-16T02:47:50;107.53;;;55.90;;
39218;SDS011;24934;52.752;6.964;2023-04-16T02:50:16;101.83;;;54.80;;
39218;SDS011;24934;52.752;6.964;2023-04-16T02:52:42;104.70;;;55.47;;
39218;SDS011;24934;52.752;6.964;2023-04-16T02:55:13;110.07;;;56.83;;
39218;SDS011;24934;52.752;6.964;2023-04-16T02:57:39;107.90;;;56.63;;
39218;SDS011;24934;52.752;6.964;2023-04-16T03:00:06;106.70;;;56.93;;
39218;SDS011;24934;52.752;6.964;2023-04-16T03:02:32;105.60;;;56.60;;
39218;SDS011;24934;52.752;6.964;2023-04-16T03:04:58;106.57;;;56.30;;
39218;SDS011;24934;52.752;6.964;2023-04-16T03:07:24;107.87;;;56.10;;
39218;SDS011;24934;52.752;6.964;2023-04-16T03:09:50;109.13;;;55.37;;
39218;SDS011;24934;52.752;6.964;2023-04-16T03:12:15;113.00;;;57.10;;
39218;SDS011;24934;52.752;6.964;2023-04-16T03:14:41;113.73;;;56.77;;
39218;SDS011;24934;52.752;6.964;2023-04-16T03:17:10;112.77;;;57.93;;
39218;SDS011;24934;52.752;6.964;2023-04-16T03:19:36;115.73;;;58.90;;
39218;SDS011;24934;52.752;6.964;2023-04-16T03:22:01;110.17;;;57.30;;
39218;SDS011;24934;52.752;6.964;2023-04-16T03:24:27;113.50;;;58.07;;
39218;SDS011;24934;52.752;6.964;2023-04-16T03:26:56;115.67;;;57.87;;
39218;SDS011;24934;52.752;6.964;2023-04-16T03:29:22;111.03;;;58.43;;
39218;SDS011;24934;52.752;6.964;2023-04-16T03:31:48;111.47;;;58.90;;
39218;SDS011;24934;52.752;6.964;2023-04-16T03:34:13;116.67;;;58.50;;
39218;SDS011;24934;52.752;6.964;2023-04-16T03:36:39;111.97;;;58.30;;
39218;SDS011;24934;52.752;6.964;2023-04-16T03:39:05;123.43;;;58.33;;
39218;SDS011;24934;52.752;6.964;2023-04-16T03:41:34;111.33;;;57.80;;
39218;SDS011;24934;52.752;6.964;2023-04-16T03:43:59;107.20;;;55.97;;
39218;SDS011;24934;52.752;6.964;2023-04-16T03:46:34;109.23;;;56.23;;
39218;SDS011;24934;52.752;6.964;2023-04-16T03:49:02;115.87;;;57.07;;
39218;SDS011;24934;52.752;6.964;2023-04-16T03:51:27;121.90;;;57.07;;
39218;SDS011;24934;52.752;6.964;2023-04-16T03:53:53;110.20;;;56.97;;
39218;SDS011;24934;52.752;6.964;2023-04-16T03:56:18;111.93;;;55.57;;
39218;SDS011;24934;52.752;6.964;2023-04-16T03:58:44;117.70;;;57.30;;
39218;SDS011;24934;52.752;6.964;2023-04-16T04:01:10;120.27;;;57.40;;
39218;SDS011;24934;52.752;6.964;2023-04-16T04:03:36;117.23;;;58.27;;
39218;SDS011;24934;52.752;6.964;2023-04-16T04:06:05;122.37;;;57.87;;
39218;SDS011;24934;52.752;6.964;2023-04-16T04:08:40;117.90;;;56.57;;
39218;SDS011;24934;52.752;6.964;2023-04-16T04:11:08;120.83;;;57.77;;
39218;SDS011;24934;52.752;6.964;2023-04-16T04:13:43;117.00;;;59.10;;
39218;SDS011;24934;52.752;6.964;2023-04-16T04:16:22;115.00;;;58.23;;
39218;SDS011;24934;52.752;6.964;2023-04-16T04:18:48;110.43;;;56.53;;
39218;SDS011;24934;52.752;6.964;2023-04-16T04:21:13;117.60;;;57.50;;
39218;SDS011;24934;52.752;6.964;2023-04-16T04:23:40;117.40;;;59.43;;
39218;SDS011;24934;52.752;6.964;2023-04-16T04:26:06;117.80;;;58.07;;
39218;SDS011;24934;52.752;6.964;2023-04-16T04:28:32;116.33;;;58.90;;
39218;SDS011;24934;52.752;6.964;2023-04-16T04:30:59;115.53;;;57.57;;
39218;SDS011;24934;52.752;6.964;2023-04-16T04:33:35;122.77;;;58.07;;
39218;SDS011;24934;52.752;6.964;2023-04-16T04:36:01;123.87;;;59.33;;
39218;SDS011;24934;52.752;6.964;2023-04-16T04:38:26;126.13;;;60.10;;
39218;SDS011;24934;52.752;6.964;2023-04-16T04:40:52;128.60;;;59.90;;
39218;SDS011;24934;52.752;6.964;2023-04-16T04:43:21;125.13;;;60.37;;
39218;SDS011;24934;52.752;6.964;2023-04-16T04:45:47;121.17;;;62.10;;
39218;SDS011;24934;52.752;6.964;2023-04-16T04:48:13;128.43;;;60.93;;
39218;SDS011;24934;52.752;6.964;2023-04-16T04:50:39;117.50;;;59.73;;
39218;SDS011;24934;52.752;6.964;2023-04-16T04:53:06;114.10;;;59.73;;
39218;SDS011;24934;52.752;6.964;2023-04-16T04:55:37;125.50;;;60.67;;
39218;SDS011;24934;52.752;6.964;2023-04-16T04:58:08;121.70;;;59.23;;
39218;SDS011;24934;52.752;6.964;2023-04-16T05:00:34;120.03;;;60.97;;
39218;SDS011;24934;52.752;6.964;2023-04-16T05:03:01;116.33;;;60.80;;
39218;SDS011;24934;52.752;6.964;2023-04-16T05:05:27;121.37;;;61.07;;
39218;SDS011;24934;52.752;6.964;2023-04-16T05:07:56;122.57;;;60.40;;
39218;SDS011;24934;52.752;6.964;2023-04-16T05:10:22;118.90;;;60.70;;
39218;SDS011;24934;52.752;6.964;2023-04-16T05:12:47;127.50;;;61.07;;
39218;SDS011;24934;52.752;6.964;2023-04-16T05:15:13;124.80;;;60.30;;
39218;SDS011;24934;52.752;6.964;2023-04-16T05:17:39;123.07;;;59.97;;
39218;SDS011;24934;52.752;6.964;2023-04-16T05:20:06;113.17;;;60.10;;
39218;SDS011;24934;52.752;6.964;2023-04-16T05:22:38;124.47;;;61.00;;
39218;SDS011;24934;52.752;6.964;2023-04-16T05:25:03;120.83;;;59.33;;
39218;SDS011;24934;52.752;6.964;2023-04-16T05:27:29;111.40;;;59.03;;
39218;SDS011;24934;52.752;6.964;2023-04-16T05:29:55;104.13;;;56.40;;
39218;SDS011;24934;52.752;6.964;2023-04-16T05:32:21;114.30;;;56.87;;
39218;SDS011;24934;52.752;6.964;2023-04-16T05:34:48;110.10;;;57.20;;
39218;SDS011;24934;52.752;6.964;2023-04-16T05:37:14;109.20;;;56.40;;
39218;SDS011;24934;52.752;6.964;2023-04-16T05:39:40;102.87;;;56.90;;
39218;SDS011;24934;52.752;6.964;2023-04-16T05:42:05;113.97;;;56.57;;
39218;SDS011;24934;52.752;6.964;2023-04-16T05:44:31;104.17;;;56.43;;
39218;SDS011;24934;52.752;6.964;2023-04-16T05:46:59;105.10;;;54.43;;
39218;SDS011;24934;52.752;6.964;2023-04-16T05:49:25;102.47;;;54.43;;
39218;SDS011;24934;52.752;6.964;2023-04-16T05:51:51;100.53;;;54.43;;
39218;SDS011;24934;52.752;6.964;2023-04-16T05:54:16;97.27;;;54.60;;
39218;SDS011;24934;52.752;6.964;2023-04-16T05:56:45;96.40;;;52.97;;
39218;SDS011;24934;52.752;6.964;2023-04-16T05:59:10;96.00;;;53.47;;
39218;SDS011;24934;52.752;6.964;2023-04-16T06:01:36;91.07;;;52.47;;
39218;SDS011;24934;52.752;6.964;2023-04-16T06:04:02;96.97;;;53.83;;
39218;SDS011;24934;52.752;6.964;2023-04-16T06:06:27;90.50;;;52.23;;
39218;SDS011;24934;52.752;6.964;2023-04-16T06:08:53;91.70;;;51.90;;
39218;SDS011;24934;52.752;6.964;2023-04-16T06:11:18;90.43;;;52.47;;
39218;SDS011;24934;52.752;6.964;2023-04-16T06:13:46;82.87;;;49.93;;
39218;SDS011;24934;52.752;6.964;2023-04-16T06:16:14;78.43;;;49.53;;
39218;SDS011;24934;52.752;6.964;2023-04-16T06:18:40;80.63;;;49.53;;
39218;SDS011;24934;52.752;6.964;2023-04-16T06:21:06;78.73;;;48.40;;
39218;SDS011;24934;52.752;6.964;2023-04-16T06:23:34;71.07;;;46.83;;
39218;SDS011;24934;52.752;6.964;2023-04-16T06:26:00;80.67;;;47.50;;
39218;SDS011;24934;52.752;6.964;2023-04-16T06:28:26;74.83;;;47.10;;
39218;SDS011;24934;52.752;6.964;2023-04-16T06:30:52;74.00;;;47.23;;
39218;SDS011;24934;52.752;6.964;2023-04-16T06:33:18;66.37;;;44.70;;
39218;SDS011;24934;52.752;6.964;2023-04-16T06:35:43;73.77;;;45.57;;
39218;SDS011;24934;52.752;6.964;2023-04-16T06:38:09;68.23;;;44.17;;
39218;SDS011;24934;52.752;6.964;2023-04-16T06:40:35;69.17;;;44.23;;
39218;SDS011;24934;52.752;6.964;2023-04-16T06:43:04;64.97;;;43.07;;
39218;SDS011;24934;52.752;6.964;2023-04-16T06:45:30;69.13;;;42.30;;
39218;SDS011;24934;52.752;6.964;2023-04-16T06:47:55;70.47;;;42.60;;
39218;SDS011;24934;52.752;6.964;2023-04-16T06:50:23;70.90;;;41.77;;
39218;SDS011;24934;52.752;6.964;2023-04-16T06:52:52;62.50;;;41.43;;
39218;SDS011;24934;52.752;6.964;2023-04-16T06:55:18;65.50;;;40.00;;
39218;SDS011;24934;52.752;6.964;2023-04-16T06:57:44;63.37;;;39.77;;
39218;SDS011;24934;52.752;6.964;2023-04-16T07:00:10;58.23;;;40.07;;
39218;SDS011;24934;52.752;6.964;2023-04-16T07:02:36;60.57;;;40.33;;
39218;SDS011;24934;52.752;6.964;2023-04-16T07:05:02;61.33;;;39.40;;
39218;SDS011;24934;52.752;6.964;2023-04-16T07:07:28;56.97;;;38.57;;
39218;SDS011;24934;52.752;6.964;2023-04-16T07:09:57;60.10;;;39.17;;
39218;SDS011;24934;52.752;6.964;2023-04-16T07:12:23;58.63;;;39.17;;
39218;SDS011;24934;52.752;6.964;2023-04-16T07:14:48;55.27;;;38.77;;
39218;SDS011;24934;52.752;6.964;2023-04-16T07:17:14;62.67;;;40.20;;
39218;SDS011;24934;52.752;6.964;2023-04-16T07:19:43;57.67;;;38.70;;
39218;SDS011;24934;52.752;6.964;2023-04-16T07:22:10;62.57;;;39.57;;
39218;SDS011;24934;52.752;6.964;2023-04-16T07:24:39;62.47;;;39.23;;
39218;SDS011;24934;52.752;6.964;2023-04-16T07:27:05;61.83;;;38.53;;
39218;SDS011;24934;52.752;6.964;2023-04-16T07:29:31;64.37;;;38.10;;
39218;SDS011;24934;52.752;6.964;2023-04-16T07:31:59;58.67;;;38.50;;
39218;SDS011;24934;52.752;6.964;2023-04-16T07:34:25;57.57;;;38.10;;
39218;SDS011;24934;52.752;6.964;2023-04-16T07:36:52;62.83;;;39.27;;
39218;SDS011;24934;52.752;6.964;2023-04-16T07:39:20;62.23;;;38.07;;
39218;SDS011;24934;52.752;6.964;2023-04-16T07:41:46;56.73;;;38.47;;
39218;SDS011;24934;52.752;6.964;2023-04-16T07:44:14;57.60;;;38.07;;
39218;SDS011;24934;52.752;6.964;2023-04-16T07:46:40;59.87;;;37.37;;
39218;SDS011;24934;52.752;6.964;2023-04-16T07:49:06;53.70;;;37.60;;
39218;SDS011;24934;52.752;6.964;2023-04-16T07:51:32;58.43;;;37.47;;
39218;SDS011;24934;52.752;6.964;2023-04-16T07:53:57;54.03;;;36.17;;
39218;SDS011;24934;52.752;6.964;2023-04-16T07:56:23;62.87;;;36.30;;
39218;SDS011;24934;52.752;6.964;2023-04-16T07:58:49;53.37;;;34.50;;
39218;SDS011;24934;52.752;6.964;2023-04-16T08:01:15;52.30;;;34.57;;
39218;SDS011;24934;52.752;6.964;2023-04-16T08:03:44;58.38;;;33.95;;
39218;SDS011;24934;52.752;6.964;2023-04-16T08:06:09;49.77;;;34.30;;
39218;SDS011;24934;52.752;6.964;2023-04-16T08:08:35;49.38;;;33.78;;
39218;SDS011;24934;52.752;6.964;2023-04-16T08:11:04;51.35;;;33.80;;
39218;SDS011;24934;52.752;6.964;2023-04-16T08:13:29;49.05;;;33.05;;
39218;SDS011;24934;52.752;6.964;2023-04-16T08:15:55;46.50;;;31.77;;
39218;SDS011;24934;52.752;6.964;2023-04-16T08:18:24;44.08;;;31.35;;
39218;SDS011;24934;52.752;6.964;2023-04-16T08:20:49;43.78;;;30.52;;
39218;SDS011;24934;52.752;6.964;2023-04-16T08:23:15;46.67;;;31.63;;
39218;SDS011;24934;52.752;6.964;2023-04-16T08:25:43;44.10;;;31.65;;
39218;SDS011;24934;52.752;6.964;2023-04-16T08:28:09;47.88;;;31.35;;
39218;SDS011;24934;52.752;6.964;2023-04-16T08:30:37;43.28;;;31.10;;
39218;SDS011;24934;52.752;6.964;2023-04-16T08:33:03;44.15;;;30.77;;
39218;SDS011;24934;52.752;6.964;2023-04-16T08:35:32;49.33;;;30.58;;
39218;SDS011;24934;52.752;6.964;2023-04-16T08:37:58;45.65;;;30.13;;
39218;SDS011;24934;52.752;6.964;2023-04-16T08:40:27;43.80;;;30.13;;
39218;SDS011;24934;52.752;6.964;2023-04-16T08:42:54;42.67;;;29.33;;
39218;SDS011;24934;52.752;6.964;2023-04-16T08:45:22;44.42;;;27.70;;
39218;SDS011;24934;52.752;6.964;2023-04-16T08:47:51;40.90;;;26.27;;
39218;SDS011;24934;52.752;6.964;2023-04-16T08:50:21;38.90;;;27.27;;
39218;SDS011;24934;52.752;6.964;2023-04-16T08:52:49;37.97;;;26.40;;
39218;SDS011;24934;52.752;6.964;2023-04-16T08:55:40;36.42;;;26.25;;
39218;SDS011;24934;52.752;6.964;2023-04-16T08:58:13;35.53;;;26.88;;
39218;SDS011;24934;52.752;6.964;2023-04-16T09:00:45;32.90;;;26.13;;
39218;SDS011;24934;52.752;6.964;2023-04-16T09:03:15;36.63;;;26.75;;
39218;SDS011;24934;52.752;6.964;2023-04-16T09:05:44;33.50;;;27.27;;
39218;SDS011;24934;52.752;6.964;2023-04-16T09:08:10;38.80;;;28.83;;
39218;SDS011;24934;52.752;6.964;2023-04-16T09:10:36;36.22;;;26.52;;
39218;SDS011;24934;52.752;6.964;2023-04-16T09:13:02;35.38;;;26.70;;
39218;SDS011;24934;52.752;6.964;2023-04-16T09:15:28;40.58;;;26.75;;
39218;SDS011;24934;52.752;6.964;2023-04-16T09:17:54;32.38;;;25.58;;
39218;SDS011;24934;52.752;6.964;2023-04-16T09:20:21;31.63;;;24.83;;
39218;SDS011;24934;52.752;6.964;2023-04-16T09:22:47;31.33;;;24.50;;
39218;SDS011;24934;52.752;6.964;2023-04-16T09:25:13;34.28;;;25.38;;
39218;SDS011;24934;52.752;6.964;2023-04-16T09:27:51;32.65;;;26.33;;
39218;SDS011;24934;52.752;6.964;2023-04-16T09:30:26;32.88;;;25.13;;
39218;SDS011;24934;52.752;6.964;2023-04-16T09:33:16;34.83;;;26.30;;
39218;SDS011;24934;52.752;6.964;2023-04-16T09:35:45;37.85;;;26.80;;
39218;SDS011;24934;52.752;6.964;2023-04-16T09:38:50;33.55;;;25.42;;
39218;SDS011;24934;52.752;6.964;2023-04-16T09:41:23;35.85;;;25.25;;
39218;SDS011;24934;52.752;6.964;2023-04-16T09:43:58;31.40;;;26.15;;
39218;SDS011;24934;52.752;6.964;2023-04-16T09:46:29;34.42;;;25.98;;
39218;SDS011;24934;52.752;6.964;2023-04-16T09:49:12;34.80;;;26.90;;
39218;SDS011;24934;52.752;6.964;2023-04-16T09:51:43;35.92;;;26.30;;
39218;SDS011;24934;52.752;6.964;2023-04-16T09:54:15;35.55;;;26.08;;
39218;SDS011;24934;52.752;6.964;2023-04-16T09:56:41;33.08;;;25.40;;
39218;SDS011;24934;52.752;6.964;2023-04-16T09:59:10;34.45;;;25.63;;
39218;SDS011;24934;52.752;6.964;2023-04-16T10:01:45;33.15;;;27.02;;
39218;SDS011;24934;52.752;6.964;2023-04-16T10:04:13;32.38;;;26.63;;
39218;SDS011;24934;52.752;6.964;2023-04-16T10:06:39;33.50;;;26.52;;
39218;SDS011;24934;52.752;6.964;2023-04-16T10:09:05;34.10;;;26.83;;
39218;SDS011;24934;52.752;6.964;2023-04-16T10:11:34;33.83;;;27.20;;
39218;SDS011;24934;52.752;6.964;2023-04-16T10:14:01;37.00;;;27.52;;
39218;SDS011;24934;52.752;6.964;2023-04-16T10:16:27;36.92;;;26.40;;
39218;SDS011;24934;52.752;6.964;2023-04-16T10:18:54;35.20;;;26.77;;
39218;SDS011;24934;52.752;6.964;2023-04-16T10:21:28;36.20;;;26.70;;
39218;SDS011;24934;52.752;6.964;2023-04-16T10:23:57;35.42;;;26.48;;
39218;SDS011;24934;52.752;6.964;2023-04-16T10:26:23;35.00;;;27.38;;
39218;SDS011;24934;52.752;6.964;2023-04-16T10:28:49;31.40;;;25.77;;
39218;SDS011;24934;52.752;6.964;2023-04-16T10:31:15;35.97;;;25.80;;
39218;SDS011;24934;52.752;6.964;2023-04-16T10:33:41;33.65;;;27.35;;
39218;SDS011;24934;52.752;6.964;2023-04-16T10:36:09;32.60;;;26.77;;
39218;SDS011;24934;52.752;6.964;2023-04-16T10:38:37;32.03;;;26.33;;
39218;SDS011;24934;52.752;6.964;2023-04-16T10:41:04;32.20;;;27.10;;
39218;SDS011;24934;52.752;6.964;2023-04-16T10:43:31;29.58;;;26.38;;
39218;SDS011;24934;52.752;6.964;2023-04-16T10:46:15;33.63;;;26.90;;
39218;SDS011;24934;52.752;6.964;2023-04-16T10:48:54;31.20;;;27.38;;
39218;SDS011;24934;52.752;6.964;2023-04-16T10:53:50;31.60;;;26.38;;
39218;SDS011;24934;52.752;6.964;2023-04-16T10:56:24;33.03;;;26.15;;
39218;SDS011;24934;52.752;6.964;2023-04-16T10:58:53;30.77;;;26.90;;
39218;SDS011;24934;52.752;6.964;2023-04-16T11:01:28;33.75;;;27.38;;
39218;SDS011;24934;52.752;6.964;2023-04-16T11:03:57;32.95;;;27.50;;
39218;SDS011;24934;52.752;6.964;2023-04-16T11:06:25;31.40;;;27.25;;
39218;SDS011;24934;52.752;6.964;2023-04-16T11:08:51;32.15;;;26.65;;
39218;SDS011;24934;52.752;6.964;2023-04-16T11:11:17;36.20;;;28.17;;
39218;SDS011;24934;52.752;6.964;2023-04-16T11:13:44;35.28;;;28.20;;
39218;SDS011;24934;52.752;6.964;2023-04-16T11:16:13;30.17;;;26.95;;
39218;SDS011;24934;52.752;6.964;2023-04-16T11:18:40;31.75;;;26.27;;
39218;SDS011;24934;52.752;6.964;2023-04-16T11:21:09;32.60;;;26.67;;
39218;SDS011;24934;52.752;6.964;2023-04-16T11:23:48;33.10;;;27.40;;
39218;SDS011;24934;52.752;6.964;2023-04-16T11:26:26;33.92;;;27.20;;
39218;SDS011;24934;52.752;6.964;2023-04-16T11:28:53;31.50;;;26.95;;
39218;SDS011;24934;52.752;6.964;2023-04-16T11:31:21;29.55;;;26.50;;
39218;SDS011;24934;52.752;6.964;2023-04-16T11:33:47;30.63;;;26.17;;
39218;SDS011;24934;52.752;6.964;2023-04-16T11:36:13;32.03;;;26.75;;
39218;SDS011;24934;52.752;6.964;2023-04-16T11:38:39;28.75;;;25.63;;
39218;SDS011;24934;52.752;6.964;2023-04-16T11:41:07;28.08;;;24.70;;
39218;SDS011;24934;52.752;6.964;2023-04-16T11:43:34;32.42;;;25.20;;
39218;SDS011;24934;52.752;6.964;2023-04-16T11:46:03;27.80;;;24.73;;
39218;SDS011;24934;52.752;6.964;2023-04-16T11:48:50;29.20;;;24.63;;
39218;SDS011;24934;52.752;6.964;2023-04-16T11:51:18;26.75;;;23.83;;
39218;SDS011;24934;52.752;6.964;2023-04-16T11:53:45;27.27;;;24.33;;
39218;SDS011;24934;52.752;6.964;2023-04-16T11:56:12;27.60;;;24.20;;
39218;SDS011;24934;52.752;6.964;2023-04-16T11:58:40;26.45;;;23.10;;
39218;SDS011;24934;52.752;6.964;2023-04-16T12:01:07;27.00;;;24.17;;
39218;SDS011;24934;52.752;6.964;2023-04-16T12:03:37;27.77;;;24.80;;
39218;SDS011;24934;52.752;6.964;2023-04-16T12:06:08;27.23;;;23.63;;
39218;SDS011;24934;52.752;6.964;2023-04-16T12:08:34;26.80;;;23.83;;
39218;SDS011;24934;52.752;6.964;2023-04-16T12:11:00;25.77;;;22.67;;
39218;SDS011;24934;52.752;6.964;2023-04-16T12:13:25;28.10;;;23.52;;
39218;SDS011;24934;52.752;6.964;2023-04-16T12:15:52;25.48;;;22.75;;
39218;SDS011;24934;52.752;6.964;2023-04-16T12:18:20;25.50;;;22.50;;
39218;SDS011;24934;52.752;6.964;2023-04-16T12:20:47;25.67;;;22.85;;
39218;SDS011;24934;52.752;6.964;2023-04-16T12:23:26;30.58;;;23.45;;
39218;SDS011;24934;52.752;6.964;2023-04-16T12:25:53;30.73;;;24.52;;
39218;SDS011;24934;52.752;6.964;2023-04-16T12:28:30;26.70;;;23.17;;
39218;SDS011;24934;52.752;6.964;2023-04-16T12:30:57;29.02;;;24.30;;
39218;SDS011;24934;52.752;6.964;2023-04-16T12:33:23;25.90;;;22.83;;
39218;SDS011;24934;52.752;6.964;2023-04-16T12:35:49;26.20;;;23.05;;
39218;SDS011;24934;52.752;6.964;2023-04-16T12:38:15;25.85;;;21.88;;
39218;SDS011;24934;52.752;6.964;2023-04-16T12:40:40;25.73;;;22.65;;
39218;SDS011;24934;52.752;6.964;2023-04-16T12:43:06;27.33;;;21.80;;
39218;SDS011;24934;52.752;6.964;2023-04-16T12:45:33;27.65;;;22.70;;
39218;SDS011;24934;52.752;6.964;2023-04-16T12:47:59;26.42;;;21.98;;
39218;SDS011;24934;52.752;6.964;2023-04-16T12:50:25;24.00;;;21.50;;
39218;SDS011;24934;52.752;6.964;2023-04-16T12:52:56;26.17;;;22.45;;
39218;SDS011;24934;52.752;6.964;2023-04-16T12:55:23;28.05;;;22.25;;
39218;SDS011;24934;52.752;6.964;2023-04-16T12:57:49;24.08;;;21.13;;
39218;SDS011;24934;52.752;6.964;2023-04-16T13:00:17;28.27;;;21.30;;
39218;SDS011;24934;52.752;6.964;2023-04-16T13:02:43;28.52;;;22.27;;
39218;SDS011;24934;52.752;6.964;2023-04-16T13:05:09;26.23;;;22.30;;
39218;SDS011;24934;52.752;6.964;2023-04-16T13:07:35;26.27;;;22.38;;
39218;SDS011;24934;52.752;6.964;2023-04-16T13:10:01;29.35;;;21.77;;
39218;SDS011;24934;52.752;6.964;2023-04-16T13:12:26;25.10;;;20.98;;
39218;SDS011;24934;52.752;6.964;2023-04-16T13:14:53;23.92;;;20.67;;
39218;SDS011;24934;52.752;6.964;2023-04-16T13:17:19;26.00;;;21.45;;
39218;SDS011;24934;52.752;6.964;2023-04-16T13:19:45;25.92;;;20.27;;
39218;SDS011;24934;52.752;6.964;2023-04-16T13:22:10;25.27;;;20.10;;
39218;SDS011;24934;52.752;6.964;2023-04-16T13:24:36;25.15;;;20.10;;
39218;SDS011;24934;52.752;6.964;2023-04-16T13:27:03;22.95;;;19.58;;
39218;SDS011;24934;52.752;6.964;2023-04-16T13:29:28;26.83;;;20.92;;
39218;SDS011;24934;52.752;6.964;2023-04-16T13:31:54;23.88;;;20.95;;
39218;SDS011;24934;52.752;6.964;2023-04-16T13:34:20;28.10;;;21.95;;
39218;SDS011;24934;52.752;6.964;2023-04-16T13:36:46;27.02;;;21.25;;
39218;SDS011;24934;52.752;6.964;2023-04-16T13:39:12;25.05;;;21.05;;
39218;SDS011;24934;52.752;6.964;2023-04-16T13:41:39;21.83;;;19.27;;
39218;SDS011;24934;52.752;6.964;2023-04-16T13:44:08;23.33;;;20.88;;
39218;SDS011;24934;52.752;6.964;2023-04-16T13:46:33;22.67;;;20.38;;
39218;SDS011;24934;52.752;6.964;2023-04-16T13:48:59;22.33;;;19.17;;
39218;SDS011;24934;52.752;6.964;2023-04-16T13:51:25;22.90;;;19.67;;
39218;SDS011;24934;52.752;6.964;2023-04-16T13:53:52;25.15;;;19.52;;
39218;SDS011;24934;52.752;6.964;2023-04-16T13:56:18;21.15;;;18.83;;
39218;SDS011;24934;52.752;6.964;2023-04-16T13:58:47;21.30;;;19.00;;
39218;SDS011;24934;52.752;6.964;2023-04-16T14:01:13;21.60;;;19.23;;
39218;SDS011;24934;52.752;6.964;2023-04-16T14:03:38;24.10;;;19.08;;
39218;SDS011;24934;52.752;6.964;2023-04-16T14:06:05;22.17;;;18.45;;
39218;SDS011;24934;52.752;6.964;2023-04-16T14:08:31;24.70;;;19.95;;
39218;SDS011;24934;52.752;6.964;2023-04-16T14:10:57;24.35;;;18.83;;
39218;SDS011;24934;52.752;6.964;2023-04-16T14:13:23;25.80;;;19.25;;
39218;SDS011;24934;52.752;6.964;2023-04-16T14:15:52;24.73;;;19.48;;
39218;SDS011;24934;52.752;6.964;2023-04-16T14:18:18;24.27;;;19.52;;
39218;SDS011;24934;52.752;6.964;2023-04-16T14:20:44;27.90;;;20.58;;